69.8°F
Current conditions from King Hill
Updated every 5 minutes
 
  Wednesday August 27, 2014

Station Historical Data
Daily Summary for July 24, 2012 Units:  Metric    English   Both
« Previous Day
Next Day »
Daily Weekly Monthly Yearly Custom
  High: Low: Average:
Temperature: 24.8 °C 15.3 °C 19.9 °C
Dew Point: 20.6 °C 12 °C 17.1 °C
Humidity: 96% 61% 84%
Wind Speed: 12.9km/h 1.6km/h 4.7km/h
Wind Gust: 35.4km/h - -
Wind- - West
Pressure: 1007 hPa 1000.2 hPa -
Precipitation: 15.7 mm    
Historical Graphs
 
 
Tabular Data for July 24, 2012
Time Temperature Dew Point Pressure Wind Wind Speed Wind Gust Humidity Daily Rainfall
00:04 18.7 °C 17.8 °C 1003.6 hPa WNW 1.6 km/h 30.6 km/h 95% 0 mm
00:09 18.7 °C 17.8 °C 1003.6 hPa NNW 4.8 km/h 29 km/h 95% 0.8 mm
00:14 18.6 °C 17.7 °C 1004.3 hPa NNW 4.8 km/h 29 km/h 95% 1 mm
00:19 18.4 °C 17.4 °C 1005 hPa WNW 3.2 km/h 20.9 km/h 94% 1.3 mm
00:24 18.3 °C 17.4 °C 1004.3 hPa NE 1.6 km/h 9.7 km/h 95% 5.1 mm
00:30 18.2 °C 17.3 °C 1004.3 hPa Calm   9.7 km/h 95% 6.1 mm
00:39 18.1 °C 17.2 °C 1002.6 hPa SSE 1.6 km/h 9.7 km/h 95% 8.6 mm
00:44 18 °C 17.2 °C 1002.9 hPa Calm   9.7 km/h 95% 9.1 mm
00:49 17.9 °C 17.1 °C 1003.3 hPa Calm   6.4 km/h 95% 9.1 mm
00:54 17.9 °C 17.1 °C 1003.3 hPa Calm     95% 9.4 mm
00:59 17.9 °C 17.1 °C 1002.3 hPa ESE 1.6 km/h 4.8 km/h 95% 9.7 mm
01:04 17.8 °C 17 °C 1002.3 hPa SSE 3.2 km/h 8 km/h 95% 9.9 mm
01:09 17.8 °C 16.9 °C 1001.9 hPa SSE 1.6 km/h 11.3 km/h 95% 9.9 mm
01:14 17.8 °C 16.9 °C 1001.6 hPa Calm   11.3 km/h 95% 9.9 mm
01:19 17.8 °C 16.9 °C 1001.6 hPa Calm   4.8 km/h 95% 9.9 mm
01:24 17.7 °C 16.9 °C 1001.6 hPa Calm     95% 10.2 mm
01:29 17.7 °C 16.9 °C 1001.2 hPa Calm   1.6 km/h 95% 10.2 mm
01:34 17.7 °C 16.8 °C 1001.2 hPa Calm   3.2 km/h 95% 10.2 mm
01:39 17.7 °C 16.8 °C 1000.9 hPa Calm   3.2 km/h 95% 10.2 mm
01:44 17.8 °C 17 °C 1000.9 hPa SW 1.6 km/h 9.7 km/h 95% 10.2 mm
01:49 17.9 °C 17.3 °C 1001.2 hPa Calm   9.7 km/h 96% 10.2 mm
01:54 18.1 °C 17.4 °C 1000.9 hPa SSW 1.6 km/h 8 km/h 96% 10.2 mm
01:59 18.3 °C 17.6 °C 1001.2 hPa SSW 1.6 km/h 11.3 km/h 96% 10.2 mm
02:04 18.4 °C 17.7 °C 1001.2 hPa Calm   11.3 km/h 96% 10.2 mm
02:09 18.6 °C 17.9 °C 1000.9 hPa SSW 1.6 km/h 11.3 km/h 96% 10.2 mm
02:14 18.6 °C 17.9 °C 1001.2 hPa Calm   11.3 km/h 96% 10.2 mm
02:19 18.7 °C 18.1 °C 1001.2 hPa Calm   1.6 km/h 96% 10.2 mm
02:24 18.9 °C 18.2 °C 1001.2 hPa Calm     96% 10.2 mm
02:29 19 °C 18.3 °C 1001.2 hPa SW 4.8 km/h 11.3 km/h 96% 10.2 mm
02:34 19.2 °C 18.5 °C 1000.9 hPa SSW 1.6 km/h 11.3 km/h 96% 10.2 mm
02:39 19.3 °C 18.7 °C 1000.9 hPa SW 3.2 km/h 12.9 km/h 96% 10.2 mm
02:44 19.5 °C 18.8 °C 1000.9 hPa Calm   12.9 km/h 96% 10.2 mm
02:49 19.6 °C 18.9 °C 1000.9 hPa SW 6.4 km/h 19.3 km/h 96% 10.2 mm
02:54 19.8 °C 19.1 °C 1000.9 hPa SW 3.2 km/h 19.3 km/h 96% 10.2 mm
02:59 19.9 °C 19.2 °C 1000.9 hPa SW 4.8 km/h 19.3 km/h 96% 10.2 mm
03:04 20 °C 19.3 °C 1000.9 hPa SSW 3.2 km/h 19.3 km/h 96% 10.4 mm
03:09 20.1 °C 19.4 °C 1000.9 hPa SW 8 km/h 20.9 km/h 96% 10.7 mm
03:14 20.1 °C 19.4 °C 1000.6 hPa Calm   20.9 km/h 96% 10.7 mm
03:19 20.1 °C 19.4 °C 1000.6 hPa SW 3.2 km/h 14.5 km/h 96% 10.7 mm
03:24 20.2 °C 19.5 °C 1000.6 hPa SW 4.8 km/h 19.3 km/h 96% 10.7 mm
03:29 20.2 °C 19.5 °C 1000.6 hPa SW 1.6 km/h 19.3 km/h 96% 10.7 mm
03:34 20.2 °C 19.5 °C 1000.6 hPa SW 6.4 km/h 19.3 km/h 96% 10.7 mm
03:39 20.2 °C 19.5 °C 1000.6 hPa SW 4.8 km/h 19.3 km/h 96% 10.7 mm
03:44 20.2 °C 19.5 °C 1000.2 hPa SW 6.4 km/h 17.7 km/h 96% 10.7 mm
03:49 20.2 °C 19.5 °C 1000.2 hPa SW 4.8 km/h 16.1 km/h 96% 10.7 mm
03:54 20.2 °C 19.5 °C 1000.2 hPa SW 1.6 km/h 16.1 km/h 96% 10.7 mm
03:59 20.2 °C 19.5 °C 1000.2 hPa SW 1.6 km/h 16.1 km/h 96% 10.7 mm
04:04 20.1 °C 19.4 °C 1000.2 hPa WSW 1.6 km/h 16.1 km/h 96% 10.7 mm
04:09 20.1 °C 19.4 °C 1000.6 hPa SW 1.6 km/h 14.5 km/h 96% 10.7 mm
04:14 20.1 °C 19.4 °C 1000.6 hPa SW 9.7 km/h 19.3 km/h 96% 10.7 mm
04:19 20.1 °C 19.4 °C 1000.6 hPa SW 4.8 km/h 19.3 km/h 96% 10.7 mm
04:24 20.1 °C 19.4 °C 1000.6 hPa WSW 3.2 km/h 17.7 km/h 96% 10.7 mm
04:29 20.1 °C 19.4 °C 1000.6 hPa SW 3.2 km/h 17.7 km/h 96% 10.7 mm
04:34 20.1 °C 19.4 °C 1000.2 hPa SSW 3.2 km/h 16.1 km/h 96% 10.7 mm
04:39 20 °C 19.3 °C 1000.2 hPa SW 4.8 km/h 20.9 km/h 96% 10.7 mm
04:44 20 °C 19.3 °C 1000.2 hPa SW 6.4 km/h 20.9 km/h 96% 10.7 mm
04:49 20 °C 19.3 °C 1000.2 hPa SSW 3.2 km/h 17.7 km/h 96% 10.7 mm
04:54 20 °C 19.3 °C 1000.2 hPa SW 3.2 km/h 17.7 km/h 96% 10.7 mm
04:59 20 °C 19.3 °C 1000.2 hPa WSW 1.6 km/h 17.7 km/h 96% 10.7 mm
05:04 19.9 °C 19.3 °C 1000.2 hPa SW 3.2 km/h 16.1 km/h 96% 10.7 mm
05:09 20 °C 19.3 °C 1000.6 hPa SW 3.2 km/h 16.1 km/h 96% 10.7 mm
05:14 19.9 °C 19.3 °C 1000.6 hPa SW 4.8 km/h 17.7 km/h 96% 10.7 mm
05:19 20 °C 19.3 °C 1000.6 hPa SSW 3.2 km/h 17.7 km/h 96% 10.7 mm
05:24 20 °C 19.3 °C 1000.6 hPa SW 8 km/h 17.7 km/h 96% 10.7 mm
05:29 19.9 °C 19.3 °C 1000.6 hPa WSW 3.2 km/h 16.1 km/h 96% 10.7 mm
05:34 20 °C 19.3 °C 1000.6 hPa SSW 3.2 km/h 16.1 km/h 96% 10.7 mm
05:39 19.9 °C 19.3 °C 1000.6 hPa SW 1.6 km/h 16.1 km/h 96% 10.7 mm
05:44 19.9 °C 19.3 °C 1000.6 hPa SSW 3.2 km/h 14.5 km/h 96% 10.7 mm
05:49 19.9 °C 19.3 °C 1000.6 hPa SW 1.6 km/h 14.5 km/h 96% 10.7 mm
05:54 19.9 °C 19.3 °C 1000.6 hPa SW 6.4 km/h 14.5 km/h 96% 10.7 mm
05:59 19.9 °C 19.3 °C 1000.6 hPa SW 3.2 km/h 16.1 km/h 96% 10.7 mm
06:04 19.9 °C 19.3 °C 1000.6 hPa SSW 1.6 km/h 16.1 km/h 96% 10.7 mm
06:09 19.9 °C 19.3 °C 1000.6 hPa SW 3.2 km/h 14.5 km/h 96% 10.7 mm
06:14 19.9 °C 19.3 °C 1000.6 hPa Calm   14.5 km/h 96% 10.7 mm
06:19 19.9 °C 19.3 °C 1000.6 hPa SW 6.4 km/h 14.5 km/h 96% 10.7 mm
06:24 20 °C 19.3 °C 1000.6 hPa Calm   14.5 km/h 96% 10.7 mm
06:29 19.9 °C 19.3 °C 1000.6 hPa SW 1.6 km/h 11.3 km/h 96% 10.7 mm
06:34 19.9 °C 19.3 °C 1000.6 hPa Calm   11.3 km/h 96% 10.7 mm
06:39 19.9 °C 19.3 °C 1000.6 hPa SSW 1.6 km/h 11.3 km/h 96% 10.7 mm
06:44 20 °C 19.3 °C 1000.6 hPa Calm   11.3 km/h 96% 10.7 mm
06:49 20.1 °C 19.4 °C 1000.6 hPa SSW 1.6 km/h 12.9 km/h 96% 10.7 mm
06:54 20.1 °C 19.4 °C 1000.6 hPa Calm   12.9 km/h 96% 10.7 mm
06:59 20.2 °C 19.5 °C 1000.2 hPa Calm   6.4 km/h 96% 10.7 mm
07:04 20.2 °C 19.6 °C 1000.2 hPa Calm   11.3 km/h 96% 10.7 mm
07:09 20.2 °C 19.6 °C 1000.2 hPa Calm   11.3 km/h 96% 10.7 mm
07:14 20.2 °C 19.6 °C 1000.6 hPa Calm     96% 11.2 mm
07:19 20.2 °C 19.6 °C 1000.2 hPa Calm     96% 14.2 mm
07:24 20.2 °C 19.6 °C 1000.6 hPa Calm     96% 14.2 mm
07:29 20.2 °C 19.6 °C 1000.6 hPa Calm   4.8 km/h 96% 14.2 mm
07:34 20.2 °C 19.6 °C 1000.6 hPa Calm   11.3 km/h 96% 14.2 mm
07:39 20.3 °C 19.6 °C 1000.6 hPa Calm   11.3 km/h 96% 14.2 mm
07:44 20.4 °C 19.7 °C 1000.6 hPa Calm   1.6 km/h 96% 14.2 mm
07:49 20.3 °C 19.7 °C 1000.6 hPa Calm   12.9 km/h 96% 14.2 mm
07:54 20.3 °C 19.7 °C 1000.9 hPa Calm   12.9 km/h 96% 14.2 mm
07:59 20.3 °C 19.7 °C 1000.9 hPa Calm   12.9 km/h 96% 14.2 mm
08:04 20.4 °C 19.7 °C 1000.6 hPa Calm   16.1 km/h 96% 14.2 mm
08:09 20.3 °C 19.7 °C 1000.9 hPa NW 9.7 km/h 16.1 km/h 96% 14.2 mm
08:14 20.4 °C 19.7 °C 1000.9 hPa WNW 8 km/h 14.5 km/h 96% 14.2 mm
08:19 20.5 °C 19.8 °C 1000.9 hPa WNW 1.6 km/h 12.9 km/h 96% 14.2 mm
08:24 20.6 °C 19.9 °C 1000.9 hPa NW 3.2 km/h 11.3 km/h 96% 14.2 mm
08:29 20.6 °C 19.9 °C 1000.9 hPa NW 3.2 km/h 20.9 km/h 96% 14.2 mm
08:34 20.4 °C 19.7 °C 1000.9 hPa WNW 4.8 km/h 20.9 km/h 96% 14.2 mm
08:39 20.3 °C 19.7 °C 1000.9 hPa WNW 3.2 km/h 19.3 km/h 96% 14.2 mm
08:44 20.3 °C 19.6 °C 1000.9 hPa NW 9.7 km/h 22.5 km/h 96% 14.2 mm
08:50 20.2 °C 19.5 °C 1000.9 hPa NW 4.8 km/h 22.5 km/h 96% 14.2 mm
08:59 20.3 °C 19.7 °C 1000.9 hPa NW 4.8 km/h 14.5 km/h 96% 14.2 mm
09:04 20.3 °C 19.7 °C 1000.9 hPa NW 9.7 km/h 20.9 km/h 96% 14.2 mm
09:09 20.4 °C 19.7 °C 1001.2 hPa NW 3.2 km/h 20.9 km/h 96% 14.2 mm
09:14 20.3 °C 19.6 °C 1001.2 hPa NW 3.2 km/h 17.7 km/h 96% 14.2 mm
09:19 20.3 °C 19.6 °C 1001.2 hPa NW 3.2 km/h 17.7 km/h 96% 14.2 mm
09:24 20.4 °C 19.7 °C 1001.2 hPa NW 1.6 km/h 17.7 km/h 96% 14.2 mm
09:29 20.7 °C 20.1 °C 1001.6 hPa NW 8 km/h 17.7 km/h 96% 14.2 mm
09:34 20.7 °C 20 °C 1001.6 hPa NW 4.8 km/h 17.7 km/h 96% 14.2 mm
09:39 20.5 °C 19.7 °C 1001.6 hPa NW 6.4 km/h 20.9 km/h 95% 14.2 mm
09:44 20.4 °C 19.6 °C 1001.6 hPa WNW 6.4 km/h 20.9 km/h 95% 14.2 mm
09:49 20.4 °C 19.6 °C 1001.6 hPa NW 9.7 km/h 19.3 km/h 95% 14.2 mm
09:54 20.4 °C 19.6 °C 1001.6 hPa NW 9.7 km/h 22.5 km/h 95% 14.2 mm
09:59 20.6 °C 19.8 °C 1001.6 hPa NW 4.8 km/h 22.5 km/h 95% 14.2 mm
10:04 21.1 °C 20.2 °C 1001.6 hPa NW 9.7 km/h 24.1 km/h 95% 14.2 mm
10:09 21.5 °C 20.5 °C 1001.6 hPa WNW 6.4 km/h 24.1 km/h 94% 14.2 mm
10:14 21.2 °C 19.7 °C 1001.6 hPa NW 9.7 km/h 22.5 km/h 91% 14.2 mm
10:19 20.8 °C 19.3 °C 1001.9 hPa NW 11.3 km/h 27.4 km/h 91% 14.2 mm
10:24 20.9 °C 19.4 °C 1001.9 hPa NW 6.4 km/h 27.4 km/h 91% 14.2 mm
10:29 21.2 °C 19.7 °C 1001.9 hPa WNW 11.3 km/h 25.7 km/h 91% 14.2 mm
10:34 21.1 °C 19.2 °C 1001.9 hPa NW 6.4 km/h 25.7 km/h 89% 14.2 mm
10:39 21.1 °C 19.2 °C 1001.9 hPa NW 6.4 km/h 24.1 km/h 89% 14.2 mm
10:44 21.1 °C 19.2 °C 1001.9 hPa NW 6.4 km/h 19.3 km/h 89% 14.2 mm
10:49 21.2 °C 19.3 °C 1001.9 hPa NW 11.3 km/h 17.7 km/h 89% 14.2 mm
10:54 21.2 °C 19.3 °C 1001.9 hPa NW 3.2 km/h 17.7 km/h 89% 14.2 mm
10:59 21.3 °C 19.2 °C 1002.3 hPa Calm   14.5 km/h 88% 14.2 mm
11:04 21.1 °C 18.9 °C 1002.3 hPa NW 4.8 km/h 14.5 km/h 87% 14.2 mm
11:09 21 °C 18.8 °C 1002.3 hPa NW 8 km/h 17.7 km/h 87% 14.2 mm
11:14 21.4 °C 19.5 °C 1002.3 hPa NW 4.8 km/h 19.3 km/h 89% 14.2 mm
11:19 22.1 °C 20 °C 1002.3 hPa NW 6.4 km/h 19.3 km/h 88% 14.2 mm
11:24 22.6 °C 19.9 °C 1002.3 hPa NW 4.8 km/h 16.1 km/h 85% 14.2 mm
11:29 22.9 °C 20.2 °C 1001.9 hPa WNW 1.6 km/h 16.1 km/h 85% 14.2 mm
11:34 23.1 °C 19.9 °C 1001.9 hPa NW 4.8 km/h 16.1 km/h 82% 14.2 mm
11:39 23.3 °C 19.5 °C 1001.9 hPa NW 8 km/h 17.7 km/h 79% 14.2 mm
11:44 23.2 °C 19.4 °C 1001.9 hPa WNW 3.2 km/h 17.7 km/h 79% 14.2 mm
11:49 23.7 °C 20.6 °C 1001.9 hPa Calm   17.7 km/h 83% 14.2 mm
11:54 23.8 °C 20 °C 1001.9 hPa NW 1.6 km/h 11.3 km/h 79% 14.2 mm
11:59 24.1 °C 20.4 °C 1001.9 hPa WNW 3.2 km/h 12.9 km/h 80% 14.2 mm
12:04 24.5 °C 20.4 °C 1001.9 hPa NW 3.2 km/h 17.7 km/h 78% 14.2 mm
12:09 24.3 °C 20 °C 1001.9 hPa WNW 8 km/h 27.4 km/h 77% 14.2 mm
12:14 24.3 °C 20.4 °C 1001.9 hPa Calm   27.4 km/h 79% 14.2 mm
12:19 24.1 °C 19.8 °C 1001.9 hPa NW 3.2 km/h 16.1 km/h 77% 14.2 mm
12:24 23.3 °C 18.7 °C 1001.9 hPa NW 6.4 km/h 24.1 km/h 75% 14.2 mm
12:29 22.7 °C 19.2 °C 1001.9 hPa NW 4.8 km/h 24.1 km/h 81% 14.2 mm
12:34 22.6 °C 18.7 °C 1001.9 hPa NW 6.4 km/h 24.1 km/h 79% 14.2 mm
12:39 23.2 °C 19.8 °C 1001.6 hPa WNW 6.4 km/h 29 km/h 81% 14.2 mm
12:44 23.6 °C 19.1 °C 1001.6 hPa NW 9.7 km/h 29 km/h 76% 14.2 mm
12:49 23.4 °C 19.2 °C 1001.6 hPa NW 8 km/h 22.5 km/h 77% 14.2 mm
12:54 23 °C 18.8 °C 1001.9 hPa NW 8 km/h 25.7 km/h 77% 14.2 mm
12:59 21.9 °C 18.5 °C 1001.9 hPa NW 3.2 km/h 25.7 km/h 81% 15.5 mm
13:04 21.6 °C 19.3 °C 1001.9 hPa NW 1.6 km/h 11.3 km/h 87% 15.5 mm
13:09 22 °C 20.3 °C 1001.9 hPa Calm   9.7 km/h 90% 15.5 mm
13:14 22.1 °C 19.8 °C 1001.9 hPa NW 1.6 km/h 14.5 km/h 87% 15.5 mm
13:19 22.2 °C 20.2 °C 1001.9 hPa Calm   16.1 km/h 88% 15.5 mm
13:24 22.2 °C 19.9 °C 1001.9 hPa Calm   16.1 km/h 87% 15.5 mm
13:29 21.9 °C 19.3 °C 1002.3 hPa NW 1.6 km/h 12.9 km/h 85% 15.5 mm
13:34 22.1 °C 20 °C 1002.3 hPa NNW 3.2 km/h 16.1 km/h 88% 15.5 mm
13:39 22.7 °C 20.6 °C 1001.9 hPa NW 3.2 km/h 16.1 km/h 88% 15.5 mm
13:44 23.2 °C 19.6 °C 1001.9 hPa WNW 9.7 km/h 24.1 km/h 80% 15.5 mm
13:49 22.9 °C 19.4 °C 1002.3 hPa WNW 8 km/h 24.1 km/h 81% 15.5 mm
13:54 23.2 °C 19.6 °C 1002.3 hPa NNW 4.8 km/h 22.5 km/h 80% 15.5 mm
13:59 23 °C 18.8 °C 1002.3 hPa NNW 6.4 km/h 19.3 km/h 77% 15.5 mm
14:04 22.9 °C 18.8 °C 1002.3 hPa Calm   19.3 km/h 78% 15.5 mm
14:10 23.2 °C 19.6 °C 1002.3 hPa NW 1.6 km/h 11.3 km/h 80% 15.5 mm
14:15 23.6 °C 19.3 °C 1002.3 hPa NW 4.8 km/h 19.3 km/h 77% 15.5 mm
14:24 23.9 °C 18.8 °C 1002.3 hPa Calm   16.1 km/h 73% 15.5 mm
14:29 23.9 °C 19.6 °C 1002.3 hPa NE 1.6 km/h 11.3 km/h 77% 15.5 mm
14:35 24.4 °C 19.4 °C 1002.3 hPa NW 3.2 km/h 12.9 km/h 74% 15.5 mm
14:44 24.8 °C 18.5 °C 1002.3 hPa NW 3.2 km/h 16.1 km/h 68% 15.5 mm
14:49 24.6 °C 18.9 °C 1002.3 hPa Calm   16.1 km/h 71% 15.5 mm
14:54 24.2 °C 17.9 °C 1002.3 hPa Calm   14.5 km/h 68% 15.5 mm
14:59 23.8 °C 17.8 °C 1002.3 hPa North 1.6 km/h 14.5 km/h 69% 15.5 mm
15:04 23 °C 17.7 °C 1002.3 hPa NW 6.4 km/h 14.5 km/h 72% 15.5 mm
15:09 22.3 °C 17.3 °C 1002.3 hPa WNW 8 km/h 20.9 km/h 73% 15.5 mm
15:14 21.9 °C 17.1 °C 1002.6 hPa NW 11.3 km/h 29 km/h 74% 15.5 mm
15:19 21.4 °C 17.6 °C 1002.9 hPa WNW 4.8 km/h 35.4 km/h 79% 15.5 mm
15:24 20.7 °C 17.3 °C 1002.9 hPa NW 6.4 km/h 35.4 km/h 81% 15.7 mm
15:29 20.3 °C 17.6 °C 1003.3 hPa NW 9.7 km/h 27.4 km/h 84% 15.7 mm
15:34 20.2 °C 17.8 °C 1003.3 hPa WNW 3.2 km/h 20.9 km/h 86% 15.7 mm
15:39 20.3 °C 17.9 °C 1003.3 hPa WNW 9.7 km/h 17.7 km/h 86% 15.7 mm
15:44 20.6 °C 17.9 °C 1003.3 hPa NW 4.8 km/h 19.3 km/h 85% 15.7 mm
15:49 20.8 °C 18.3 °C 1003.3 hPa Calm   19.3 km/h 86% 15.7 mm
15:54 21.3 °C 19.2 °C 1003.3 hPa Calm   17.7 km/h 88% 15.7 mm
15:59 22.2 °C 19.4 °C 1003.3 hPa WNW 3.2 km/h 17.7 km/h 84% 15.7 mm
16:04 22.8 °C 18.6 °C 1003.3 hPa NW 8 km/h 24.1 km/h 77% 15.7 mm
16:09 23.2 °C 17.8 °C 1003.3 hPa NW 9.7 km/h 25.7 km/h 72% 15.7 mm
16:14 22.9 °C 17.4 °C 1003.3 hPa NW 6.4 km/h 25.7 km/h 71% 15.7 mm
16:19 22.3 °C 16.2 °C 1003.3 hPa NW 12.9 km/h 27.4 km/h 68% 15.7 mm
16:24 21.7 °C 16 °C 1003.6 hPa NW 9.7 km/h 27.4 km/h 70% 15.7 mm
16:29 21.6 °C 15.2 °C 1003.6 hPa NW 9.7 km/h 32.2 km/h 67% 15.7 mm
16:34 21.4 °C 14.6 °C 1003.6 hPa NW 4.8 km/h 32.2 km/h 65% 15.7 mm
16:39 21.7 °C 15.3 °C 1003.6 hPa NW 9.7 km/h 25.7 km/h 67% 15.7 mm
16:44 22.2 °C 15.8 °C 1003.6 hPa NW 3.2 km/h 27.4 km/h 67% 15.7 mm
16:49 22.4 °C 14.5 °C 1003.6 hPa WNW 9.7 km/h 27.4 km/h 61% 15.7 mm
16:54 22.2 °C 15.1 °C 1003.6 hPa NNE 3.2 km/h 27.4 km/h 64% 15.7 mm
16:59 22 °C 15.4 °C 1003.6 hPa North 1.6 km/h 16.1 km/h 66% 15.7 mm
17:04 21.6 °C 15.4 °C 1003.9 hPa Calm   14.5 km/h 68% 15.7 mm
17:09 21.3 °C 13.9 °C 1003.9 hPa NW 8 km/h 33.8 km/h 63% 15.7 mm
17:14 21.1 °C 14.2 °C 1003.6 hPa NW 3.2 km/h 33.8 km/h 65% 15.7 mm
17:19 21.4 °C 14.1 °C 1003.9 hPa NW 4.8 km/h 20.9 km/h 63% 15.7 mm
17:24 21.3 °C 13.5 °C 1003.9 hPa WNW 3.2 km/h 20.9 km/h 61% 15.7 mm
17:29 20.7 °C 13.2 °C 1004.3 hPa NW 4.8 km/h 20.9 km/h 62% 15.7 mm
17:34 20.3 °C 13 °C 1004.3 hPa NW 3.2 km/h 27.4 km/h 63% 15.7 mm
17:39 20.1 °C 13.3 °C 1004.3 hPa NNW 3.2 km/h 27.4 km/h 65% 15.7 mm
17:44 20 °C 13 °C 1004.3 hPa NW 3.2 km/h 19.3 km/h 64% 15.7 mm
17:49 19.9 °C 13.4 °C 1004.3 hPa NW 1.6 km/h 19.3 km/h 66% 15.7 mm
17:54 20.1 °C 13.5 °C 1004.3 hPa NNW 1.6 km/h 17.7 km/h 66% 15.7 mm
17:59 20.1 °C 13.5 °C 1004.3 hPa Calm   14.5 km/h 66% 15.7 mm
18:04 19.8 °C 13.6 °C 1004.3 hPa Calm   8 km/h 67% 15.7 mm
18:09 19.7 °C 14.1 °C 1004.3 hPa Calm   3.2 km/h 70% 15.7 mm
18:14 19.6 °C 13.5 °C 1004.3 hPa Calm   12.9 km/h 68% 15.7 mm
18:19 19.5 °C 13.2 °C 1004.3 hPa NW 3.2 km/h 16.1 km/h 67% 15.7 mm
18:24 19.4 °C 13.4 °C 1004.3 hPa Calm   16.1 km/h 68% 15.7 mm
18:29 19.4 °C 13.4 °C 1004.3 hPa NNW 1.6 km/h 16.1 km/h 68% 15.7 mm
18:34 19.6 °C 13.3 °C 1004.3 hPa Calm   16.1 km/h 67% 15.7 mm
18:39 19.7 °C 13.4 °C 1004.3 hPa Calm   4.8 km/h 67% 15.7 mm
18:44 19.6 °C 12.8 °C 1004.3 hPa Calm   4.8 km/h 65% 15.7 mm
18:49 19.4 °C 12.9 °C 1004.6 hPa Calm   3.2 km/h 66% 15.7 mm
18:54 19.3 °C 13.1 °C 1004.6 hPa Calm   3.2 km/h 67% 15.7 mm
18:59 19.1 °C 12.6 °C 1004.6 hPa Calm   6.4 km/h 66% 15.7 mm
19:04 18.8 °C 12.8 °C 1004.6 hPa Calm   6.4 km/h 68% 15.7 mm
19:09 18.7 °C 12.9 °C 1004.6 hPa NE 1.6 km/h 8 km/h 69% 15.7 mm
19:14 18.7 °C 13.2 °C 1004.6 hPa Calm   8 km/h 70% 15.7 mm
19:19 18.7 °C 12.7 °C 1004.6 hPa Calm     68% 15.7 mm
19:24 18.7 °C 13.6 °C 1004.6 hPa Calm     72% 15.7 mm
19:29 18.7 °C 13.5 °C 1004.6 hPa Calm     72% 15.7 mm
19:34 18.6 °C 13.6 °C 1004.6 hPa Calm   6.4 km/h 73% 15.7 mm
19:39 18.4 °C 13.3 °C 1004.6 hPa Calm   6.4 km/h 72% 15.7 mm
19:44 18.4 °C 13.7 °C 1004.6 hPa Calm     74% 15.7 mm
19:49 18.4 °C 13.7 °C 1005 hPa Calm     74% 15.7 mm
19:54 18.3 °C 13.4 °C 1005 hPa Calm   4.8 km/h 73% 15.7 mm
19:59 18.3 °C 13.2 °C 1005 hPa Calm   4.8 km/h 72% 15.7 mm
20:04 18.3 °C 12.9 °C 1005 hPa Calm   1.6 km/h 71% 15.7 mm
20:09 18.1 °C 12.8 °C 1005.3 hPa Calm   3.2 km/h 71% 15.7 mm
20:14 17.9 °C 12.6 °C 1005.3 hPa North 1.6 km/h 6.4 km/h 71% 15.7 mm
20:19 17.8 °C 12.9 °C 1005.3 hPa Calm   6.4 km/h 73% 15.7 mm
20:24 17.7 °C 13 °C 1005.3 hPa Calm   1.6 km/h 74% 15.7 mm
20:29 17.5 °C 12.8 °C 1005.3 hPa Calm   4.8 km/h 74% 15.7 mm
20:34 17.5 °C 12.8 °C 1005.6 hPa Calm   8 km/h 74% 15.7 mm
20:39 17.5 °C 12.8 °C 1005.6 hPa Calm   9.7 km/h 74% 15.7 mm
20:44 17.5 °C 12.8 °C 1005.6 hPa Calm   9.7 km/h 74% 15.7 mm
20:49 17.4 °C 12.5 °C 1005.6 hPa NNW 1.6 km/h 9.7 km/h 73% 15.7 mm
20:54 17.3 °C 12.4 °C 1005.6 hPa Calm   9.7 km/h 73% 15.7 mm
20:59 17.3 °C 12.4 °C 1005.6 hPa Calm   11.3 km/h 73% 15.7 mm
21:04 17.3 °C 12.2 °C 1006 hPa Calm   11.3 km/h 72% 15.7 mm
21:09 17.2 °C 12.3 °C 1006 hPa Calm   8 km/h 73% 15.7 mm
21:14 17.1 °C 12.2 °C 1006 hPa Calm   8 km/h 73% 15.7 mm
21:19 17 °C 12.3 °C 1006 hPa Calm   3.2 km/h 74% 15.7 mm
21:24 16.9 °C 12.3 °C 1006.3 hPa Calm   3.2 km/h 74% 15.7 mm
21:29 16.8 °C 12.2 °C 1006.3 hPa Calm     74% 15.7 mm
21:34 16.7 °C 12.3 °C 1006.3 hPa Calm   6.4 km/h 75% 15.7 mm
21:39 16.6 °C 12.1 °C 1006.3 hPa Calm   9.7 km/h 75% 15.7 mm
21:44 16.4 °C 12.2 °C 1006.3 hPa Calm   9.7 km/h 76% 15.7 mm
21:49 16.3 °C 12.3 °C 1006.3 hPa Calm     77% 15.7 mm
21:54 16.2 °C 12.2 °C 1006.3 hPa Calm     77% 15.7 mm
21:59 16.2 °C 12.1 °C 1006.3 hPa Calm   1.6 km/h 77% 15.7 mm
22:04 16.1 °C 12.3 °C 1006.3 hPa Calm   3.2 km/h 78% 15.7 mm
22:09 16.1 °C 12.3 °C 1006.3 hPa Calm   4.8 km/h 78% 15.7 mm
22:14 16.2 °C 12.3 °C 1006.3 hPa Calm   4.8 km/h 78% 15.7 mm
22:19 16.2 °C 12.3 °C 1006.3 hPa Calm   1.6 km/h 78% 15.7 mm
22:24 16.1 °C 12.2 °C 1006.3 hPa Calm   3.2 km/h 78% 15.7 mm
22:30 15.9 °C 12.3 °C 1006.3 hPa Calm   3.2 km/h 79% 15.7 mm
22:39 15.6 °C 12.1 °C 1006.3 hPa Calm   6.4 km/h 80% 15.7 mm
22:44 15.4 °C 12 °C 1006.7 hPa Calm     80% 15.7 mm
22:49 15.3 °C 12.1 °C 1006.7 hPa Calm   1.6 km/h 81% 15.7 mm
22:54 15.4 °C 12.3 °C 1006.7 hPa Calm   1.6 km/h 82% 15.7 mm
22:59 15.6 °C 12.5 °C 1006.7 hPa Calm   1.6 km/h 82% 15.7 mm
23:04 15.7 °C 12.7 °C 1006.7 hPa NW 1.6 km/h 8 km/h 82% 15.7 mm
23:09 15.9 °C 12.7 °C 1006.7 hPa Calm   8 km/h 81% 15.7 mm
23:14 16.1 °C 12.8 °C 1006.7 hPa Calm   6.4 km/h 81% 15.7 mm
23:19 16.1 °C 12.8 °C 1006.7 hPa Calm   6.4 km/h 81% 15.7 mm
23:24 16.2 °C 12.8 °C 1006.7 hPa Calm   4.8 km/h 80% 15.7 mm
23:29 16.4 °C 12.6 °C 1006.7 hPa Calm   6.4 km/h 78% 15.7 mm
23:34 16.7 °C 12.8 °C 1007 hPa Calm   14.5 km/h 78% 15.7 mm
23:39 16.9 °C 12.8 °C 1006.7 hPa WNW 1.6 km/h 14.5 km/h 77% 15.7 mm
23:44 17.1 °C 12.6 °C 1006.7 hPa Calm   12.9 km/h 75% 15.7 mm
23:49 17.1 °C 12.8 °C 1007 hPa Calm   12.9 km/h 76% 15.7 mm
23:54 17.1 °C 12.8 °C 1007 hPa NNW 1.6 km/h 9.7 km/h 76% 15.7 mm
23:59 17.1 °C 12.8 °C 1007 hPa Calm   11.3 km/h 76% 15.7 mm
Westford Weather
Compliments of Weather Underground

 
 
Current Radar Loop:

Copyright © WestfordWeather.net 2007-2014. All rights reserved.